Time;durP1;ratioP1;P1;durP2;ratioP2;P2;SDS_P1;SDS_P2;PMS_P1;PMS_P2;Temp;Humidity;BMP_temperature;BMP_pressure;BME280_temperature;BME280_humidity;BME280_pressure;Samples;Min_cycle;Max_cycle;Signal;HPM_P1;HPM_P2
2021/06/20 00:00:20;;;;;;;21.42;5.25;;;;;;;21.43;76.55;100370.88;5064498;28;20473;-69
2021/06/20 00:02:48;;;;;;;12.00;4.35;;;;;;;21.42;76.49;100382.47;5050563;28;20443;-69
2021/06/20 00:05:20;;;;;;;11.93;5.93;;;;;;;21.45;76.52;100403.09;5067847;28;20041;-69
2021/06/20 00:07:49;;;;;;;16.20;5.67;;;;;;;21.36;76.77;100409.75;5066063;28;20561;-69
2021/06/20 00:10:20;;;;;;;11.93;5.25;;;;;;;21.24;77.92;100416.94;5065870;28;20087;-69
2021/06/20 00:12:46;;;;;;;12.32;5.25;;;;;;;21.19;78.41;100420.28;5066102;28;20480;-69
2021/06/20 00:15:14;;;;;;;13.65;5.90;;;;;;;21.08;79.01;100419.31;5063985;28;20040;-69
2021/06/20 00:17:40;;;;;;;14.07;6.25;;;;;;;21.02;79.48;100425.53;5062369;28;20067;-69
2021/06/20 00:20:07;;;;;;;13.02;6.10;;;;;;;21.06;79.84;100428.47;5063625;28;20724;-70
2021/06/20 00:22:33;;;;;;;8.85;5.47;;;;;;;20.96;80.03;100419.34;5041263;28;20045;-69
2021/06/20 00:24:59;;;;;;;11.38;4.75;;;;;;;20.89;80.39;100405.50;5039412;28;20032;-69
2021/06/20 00:27:24;;;;;;;12.43;6.68;;;;;;;20.94;80.22;100386.34;5058941;28;20123;-69
2021/06/20 00:29:50;;;;;;;12.60;5.78;;;;;;;20.92;80.86;100377.88;5054738;28;20548;-69
2021/06/20 00:32:15;;;;;;;14.23;6.50;;;;;;;20.98;80.59;100371.66;5053204;28;20036;-69
2021/06/20 00:34:41;;;;;;;15.25;7.82;;;;;;;21.10;80.45;100372.41;5045934;28;20516;-70
2021/06/20 00:37:06;;;;;;;31.15;10.63;;;;;;;20.93;80.75;100361.84;5044586;28;20479;-70
2021/06/20 00:39:32;;;;;;;24.40;10.98;;;;;;;20.97;81.35;100362.16;5057306;28;20048;-69
2021/06/20 00:41:58;;;;;;;21.60;11.40;;;;;;;20.91;81.85;100358.63;5056874;28;20064;-69
2021/06/20 00:44:23;;;;;;;20.45;12.30;;;;;;;20.85;82.04;100354.31;5052295;28;20071;-69
2021/06/20 00:46:49;;;;;;;21.23;12.32;;;;;;;20.84;81.96;100350.06;5054225;28;20039;-70
2021/06/20 00:49:14;;;;;;;24.88;12.10;;;;;;;20.81;82.39;100350.53;5039771;28;20041;-69
2021/06/20 00:51:40;;;;;;;18.38;10.98;;;;;;;20.80;82.80;100352.38;5057322;28;20036;-69
2021/06/20 00:54:05;;;;;;;23.85;10.10;;;;;;;20.78;82.41;100345.75;5054215;28;20519;-69
2021/06/20 00:56:32;;;;;;;14.48;9.40;;;;;;;20.75;82.19;100336.44;5061381;28;20029;-69
2021/06/20 00:59:04;;;;;;;16.02;8.68;;;;;;;20.71;82.31;100330.06;5047545;28;20025;-69
2021/06/20 01:01:31;;;;;;;24.50;7.78;;;;;;;20.76;82.07;100332.00;5067900;28;20056;-69
2021/06/20 01:03:57;;;;;;;15.40;8.82;;;;;;;20.73;82.02;100333.25;5049151;28;20132;-69
2021/06/20 01:06:23;;;;;;;22.13;9.50;;;;;;;20.72;82.05;100341.38;5066355;28;20119;-70
2021/06/20 01:08:49;;;;;;;19.75;12.32;;;;;;;20.73;82.44;100345.63;5037168;28;20025;-70
2021/06/20 01:11:15;;;;;;;27.42;12.15;;;;;;;20.68;82.44;100356.06;5067737;28;20093;-70
2021/06/20 01:13:40;;;;;;;20.13;11.60;;;;;;;20.65;82.19;100362.59;5068143;28;20036;-69
2021/06/20 01:16:05;;;;;;;14.70;8.52;;;;;;;20.60;81.43;100354.59;5049367;28;20047;-69
2021/06/20 01:18:31;;;;;;;15.80;6.57;;;;;;;20.56;81.67;100356.06;5065336;28;20032;-70
2021/06/20 01:20:56;;;;;;;13.50;5.40;;;;;;;20.48;81.71;100357.22;5067206;28;20523;-69
2021/06/20 01:23:22;;;;;;;15.70;5.35;;;;;;;20.55;81.06;100349.19;5066818;28;20032;-69
2021/06/20 01:25:49;;;;;;;10.13;3.67;;;;;;;20.54;81.35;100345.75;5065309;28;20036;-69
2021/06/20 01:28:15;;;;;;;10.63;4.15;;;;;;;20.45;80.52;100355.06;5045254;28;20028;-69
2021/06/20 01:30:46;;;;;;;14.93;5.15;;;;;;;20.45;80.09;100351.63;5067259;28;20480;-70
2021/06/20 01:33:13;;;;;;;6.22;3.65;;;;;;;20.42;80.10;100343.16;5064753;28;20515;-70
2021/06/20 01:35:39;;;;;;;10.07;3.28;;;;;;;20.39;80.01;100340.19;5062666;28;20036;-70
2021/06/20 01:38:08;;;;;;;9.45;2.97;;;;;;;20.39;79.94;100324.41;5070439;28;20079;-69
2021/06/20 01:40:34;;;;;;;6.03;2.65;;;;;;;20.38;79.65;100318.34;5047849;28;20047;-69
2021/06/20 01:43:00;;;;;;;7.68;2.83;;;;;;;20.33;79.66;100306.91;5065473;28;20032;-69
2021/06/20 01:45:26;;;;;;;9.25;3.58;;;;;;;20.25;79.71;100318.59;5070676;28;20108;-68
2021/06/20 01:47:54;;;;;;;11.85;3.90;;;;;;;20.18;79.96;100312.66;5070662;28;20458;-70
2021/06/20 01:50:20;;;;;;;11.10;3.72;;;;;;;20.14;79.92;100307.03;5067734;28;20044;-69
2021/06/20 01:52:46;;;;;;;9.93;4.13;;;;;;;20.15;80.37;100315.72;5068961;28;20057;-70
2021/06/20 01:55:13;;;;;;;6.18;2.97;;;;;;;20.18;80.02;100320.53;5066592;28;20041;-68
2021/06/20 01:57:40;;;;;;;7.47;3.20;;;;;;;20.18;80.29;100320.53;5069893;28;20040;-69
2021/06/20 02:00:11;;;;;;;9.52;3.35;;;;;;;20.12;80.38;100322.28;5067959;28;20291;-69
2021/06/20 02:02:41;;;;;;;9.38;2.92;;;;;;;20.20;79.96;100318.47;5070121;28;20094;-69
2021/06/20 02:05:07;;;;;;;6.07;2.25;;;;;;;20.18;80.34;100315.28;5052703;28;20496;-69
2021/06/20 02:07:35;;;;;;;8.48;2.97;;;;;;;20.17;80.85;100308.41;5070801;28;20040;-69
2021/06/20 02:10:02;;;;;;;8.23;2.40;;;;;;;20.19;79.92;100324.75;5060285;28;20032;-69
2021/06/20 02:12:27;;;;;;;8.70;3.13;;;;;;;20.16;80.35;100351.56;5068847;28;20033;-69
2021/06/20 02:14:53;;;;;;;6.38;2.45;;;;;;;20.13;80.10;100358.06;5069625;28;20362;-69
2021/06/20 02:17:25;;;;;;;7.40;2.83;;;;;;;20.17;80.34;100369.75;5068484;28;20470;-69
2021/06/20 02:19:53;;;;;;;10.60;2.70;;;;;;;20.26;79.72;100380.72;5045061;28;20839;-69
2021/06/20 02:22:18;;;;;;;10.75;2.60;;;;;;;20.11;80.47;100407.50;5069065;28;20027;-69
2021/06/20 02:24:44;;;;;;;9.95;2.78;;;;;;;20.14;80.21;100425.47;5053446;28;20029;-69
2021/06/20 02:27:12;;;;;;;7.78;3.35;;;;;;;20.12;80.30;100445.97;5069450;28;20522;-69
2021/06/20 02:29:38;;;;;;;13.93;2.78;;;;;;;20.13;80.64;100444.91;5059646;28;20043;-69
2021/06/20 02:32:05;;;;;;;9.30;2.78;;;;;;;20.05;81.28;100426.06;5061057;28;20369;-69
2021/06/20 02:34:30;;;;;;;9.02;3.28;;;;;;;20.13;80.50;100421.22;5068029;28;20044;-69
2021/06/20 02:36:56;;;;;;;8.48;3.53;;;;;;;20.15;80.60;100423.63;5067465;28;20028;-69
2021/06/20 02:39:21;;;;;;;14.57;3.75;;;;;;;20.05;81.28;100418.94;5068885;28;20035;-69
2021/06/20 02:41:50;;;;;;;11.65;3.47;;;;;;;20.05;81.52;100432.09;5067627;28;20063;-69
2021/06/20 02:44:16;;;;;;;9.02;3.22;;;;;;;20.07;81.53;100450.31;5051848;28;21033;-68
2021/06/20 02:46:41;;;;;;;13.85;4.25;;;;;;;20.07;82.07;100455.56;5060519;28;20047;-69
2021/06/20 02:49:07;;;;;;;7.28;3.00;;;;;;;20.12;81.27;100461.75;5066390;28;20111;-69
2021/06/20 02:51:32;;;;;;;9.82;3.45;;;;;;;20.26;81.61;100472.06;5067930;28;20644;-69
2021/06/20 02:53:58;;;;;;;11.10;4.20;;;;;;;20.24;80.83;100477.53;5066050;28;20033;-69
2021/06/20 02:56:23;;;;;;;13.98;3.83;;;;;;;20.21;81.03;100483.25;5050573;28;20083;-69
2021/06/20 02:58:49;;;;;;;5.40;3.28;;;;;;;20.29;81.26;100492.69;5054161;28;20028;-69
2021/06/20 03:01:14;;;;;;;12.00;4.07;;;;;;;20.35;80.94;100479.38;5060380;28;20041;-69
2021/06/20 03:03:39;;;;;;;15.63;5.25;;;;;;;20.22;81.29;100492.78;5069209;28;20040;-69
2021/06/20 03:06:06;;;;;;;16.98;6.75;;;;;;;20.29;80.78;100485.56;5068521;28;20038;-69
2021/06/20 03:08:31;;;;;;;13.35;6.93;;;;;;;20.30;81.00;100475.84;5051853;28;20204;-68
2021/06/20 03:10:57;;;;;;;15.85;8.45;;;;;;;20.26;80.00;100488.66;5064267;28;20399;-68
2021/06/20 03:13:22;;;;;;;16.17;7.80;;;;;;;20.26;80.38;100479.97;5061885;28;20040;-68
2021/06/20 03:15:48;;;;;;;17.08;8.43;;;;;;;20.28;80.30;100486.59;5069144;28;20098;-68
2021/06/20 03:18:13;;;;;;;20.55;9.38;;;;;;;20.07;80.44;100484.50;5068748;28;20508;-69
2021/06/20 03:20:39;;;;;;;15.38;8.77;;;;;;;20.08;80.20;100476.41;5065412;28;20424;-68
2021/06/20 03:23:08;;;;;;;14.77;9.15;;;;;;;20.09;80.30;100472.72;5069154;28;20028;-68
2021/06/20 03:25:33;;;;;;;19.23;10.25;;;;;;;20.07;79.50;100464.25;5064619;28;20083;-69
2021/06/20 03:27:58;;;;;;;18.10;9.63;;;;;;;20.07;80.02;100471.34;5069217;28;20036;-69
2021/06/20 03:30:24;;;;;;;16.92;8.88;;;;;;;20.13;79.43;100475.69;5066314;28;20039;-69
2021/06/20 03:32:49;;;;;;;16.08;8.70;;;;;;;20.08;79.75;100483.47;5067783;28;20430;-69
2021/06/20 03:35:15;;;;;;;17.35;9.00;;;;;;;20.00;79.50;100477.53;5064853;28;20509;-70
2021/06/20 03:37:40;;;;;;;17.27;8.45;;;;;;;19.95;79.75;100480.03;5068321;28;20024;-69
2021/06/20 03:40:06;;;;;;;17.13;6.68;;;;;;;19.97;79.76;100485.88;5050233;28;20050;-69
2021/06/20 03:42:32;;;;;;;15.07;6.25;;;;;;;19.98;79.96;100490.09;5068681;28;20041;-69
2021/06/20 03:44:57;;;;;;;10.73;5.13;;;;;;;19.95;79.46;100493.19;5063162;28;20082;-68
2021/06/20 03:47:23;;;;;;;12.88;5.40;;;;;;;19.98;79.67;100492.72;5069414;28;20039;-69
2021/06/20 03:49:49;;;;;;;8.95;4.85;;;;;;;19.98;78.47;100490.09;5065635;28;20032;-69
2021/06/20 03:52:14;;;;;;;7.78;3.50;;;;;;;19.79;80.08;100494.63;5065050;28;20614;-68
2021/06/20 03:54:39;;;;;;;11.80;4.85;;;;;;;19.79;79.66;100486.72;5050901;28;20047;-68
2021/06/20 03:57:06;;;;;;;7.72;3.95;;;;;;;19.74;79.95;100493.69;5049352;28;20374;-69
2021/06/20 03:59:32;;;;;;;11.05;4.20;;;;;;;19.72;79.62;100496.56;5049096;28;20162;-68
2021/06/20 04:01:57;;;;;;;10.60;3.13;;;;;;;19.77;79.45;100499.28;5046488;28;20123;-69
2021/06/20 04:04:22;;;;;;;7.05;2.67;;;;;;;19.76;78.53;100502.97;5067877;28;20166;-68
2021/06/20 04:06:49;;;;;;;7.40;2.90;;;;;;;19.68;79.14;100499.81;5064222;28;20035;-68
2021/06/20 04:09:14;;;;;;;6.53;3.03;;;;;;;19.72;78.49;100514.97;5067536;28;20434;-68
2021/06/20 04:11:40;;;;;;;5.75;2.15;;;;;;;19.69;78.47;100506.69;5066088;28;20032;-68
2021/06/20 04:14:05;;;;;;;9.68;2.40;;;;;;;19.73;78.55;100515.75;5067641;28;20505;-69
2021/06/20 04:16:30;;;;;;;5.18;2.75;;;;;;;19.67;78.65;100520.06;5063123;28;20120;-68
2021/06/20 04:18:57;;;;;;;5.50;2.50;;;;;;;19.82;78.13;100522.31;5033916;28;20028;-69
2021/06/20 04:21:23;;;;;;;6.63;2.13;;;;;;;19.83;77.61;100521.28;5044391;28;20080;-68
2021/06/20 04:23:49;;;;;;;6.15;3.38;;;;;;;19.68;78.07;100523.47;5062793;28;20060;-68
2021/06/20 04:26:14;;;;;;;6.30;2.33;;;;;;;19.74;78.00;100525.25;5065930;28;20574;-68
2021/06/20 04:28:41;;;;;;;8.52;2.75;;;;;;;19.73;78.33;100526.28;5050135;28;20033;-69
2021/06/20 04:31:07;;;;;;;9.73;2.22;;;;;;;19.82;77.37;100523.13;5067786;28;20087;-69
2021/06/20 04:33:33;;;;;;;8.77;2.60;;;;;;;19.73;78.22;100534.19;5065859;28;20137;-68
2021/06/20 04:35:58;;;;;;;10.43;2.85;;;;;;;19.82;77.41;100519.69;5066892;28;20615;-69
2021/06/20 04:38:23;;;;;;;3.75;2.20;;;;;;;19.89;77.69;100532.72;5048260;28;20028;-68
2021/06/20 04:40:51;;;;;;;5.25;1.83;;;;;;;19.90;77.72;100529.88;5067746;28;20040;-68
2021/06/20 04:46:00;;;;;;;8.48;2.03;;;;;;;20.15;75.44;100527.06;5067831;28;20068;-69
2021/06/20 04:48:25;;;;;;;3.53;2.00;;;;;;;20.16;76.43;100533.16;5067638;28;20075;-68
2021/06/20 04:50:53;;;;;;;6.40;2.35;;;;;;;20.14;76.12;100533.38;5066477;28;20614;-68
2021/06/20 04:53:18;;;;;;;2.78;2.50;;;;;;;20.25;75.97;100538.88;5047786;28;20032;-68
2021/06/20 04:55:44;;;;;;;3.17;1.90;;;;;;;20.33;75.41;100541.22;5067257;28;20044;-68
2021/06/20 04:58:09;;;;;;;11.80;2.15;;;;;;;20.42;74.68;100542.47;5050158;28;20507;-68
2021/06/20 05:00:35;;;;;;;4.63;1.90;;;;;;;20.48;75.13;100557.38;5067704;28;20040;-68
2021/06/20 05:03:01;;;;;;;4.70;2.05;;;;;;;20.39;75.00;100558.72;5066411;28;20806;-68
2021/06/20 05:05:26;;;;;;;5.82;1.90;;;;;;;20.31;74.46;100553.78;5068062;28;20064;-68
2021/06/20 05:07:52;;;;;;;8.43;2.83;;;;;;;20.30;74.42;100555.59;5067790;28;20042;-68
2021/06/20 05:10:17;;;;;;;4.78;2.00;;;;;;;20.21;74.56;100554.31;5059416;28;20125;-69
2021/06/20 05:12:42;;;;;;;9.57;2.40;;;;;;;20.19;74.20;100559.84;5071574;28;20040;-68
2021/06/20 05:15:08;;;;;;;4.95;1.90;;;;;;;20.22;74.18;100566.47;5068090;28;20410;-69
2021/06/20 05:17:34;;;;;;;4.78;2.10;;;;;;;20.25;74.31;100565.22;5067983;28;20472;-69
2021/06/20 05:19:59;;;;;;;3.45;1.70;;;;;;;20.30;74.27;100563.50;5072312;28;20047;-67
2021/06/20 05:22:25;;;;;;;6.75;2.22;;;;;;;20.32;73.54;100574.59;5071429;28;20024;-68
2021/06/20 05:24:50;;;;;;;8.93;2.10;;;;;;;20.47;72.98;100568.13;5071126;28;20033;-70
2021/06/20 05:27:16;;;;;;;2.95;1.58;;;;;;;20.74;72.13;100574.59;5071220;28;20634;-68
2021/06/20 05:29:42;;;;;;;9.13;1.90;;;;;;;20.76;71.57;100575.16;5072254;28;20527;-68
2021/06/20 05:32:07;;;;;;;5.25;1.83;;;;;;;20.73;70.51;100578.25;5070746;28;20798;-68
2021/06/20 05:34:33;;;;;;;6.90;2.70;;;;;;;20.69;71.13;100578.94;5071606;28;20047;-68
2021/06/20 05:36:59;;;;;;;6.78;2.50;;;;;;;20.68;71.44;100580.78;5069552;28;20045;-68
2021/06/20 05:39:24;;;;;;;8.27;2.47;;;;;;;20.95;71.39;100580.31;5069301;28;20063;-68
2021/06/20 05:41:49;;;;;;;5.40;2.20;;;;;;;21.09;69.81;100584.31;5069352;28;20397;-68
2021/06/20 05:44:15;;;;;;;5.20;2.25;;;;;;;21.18;69.75;100593.47;5070766;28;20423;-68
2021/06/20 05:46:40;;;;;;;4.15;2.40;;;;;;;21.51;69.34;100586.81;5069975;28;20440;-68
2021/06/20 05:49:06;;;;;;;6.18;2.10;;;;;;;21.30;68.77;100580.25;5071129;28;20424;-68
2021/06/20 05:51:31;;;;;;;6.50;2.13;;;;;;;21.55;68.77;100582.66;5070013;28;20404;-68
2021/06/20 05:53:57;;;;;;;4.22;2.05;;;;;;;21.95;66.87;100581.81;5070012;28;20039;-69
2021/06/20 05:56:22;;;;;;;5.50;2.47;;;;;;;22.09;65.64;100574.38;5053134;28;20137;-68
2021/06/20 05:58:47;;;;;;;8.73;2.22;;;;;;;22.43;65.44;100585.00;5071174;28;20353;-70
2021/06/20 06:01:13;;;;;;;5.88;2.50;;;;;;;22.51;64.30;100579.34;5067021;28;20115;-69
2021/06/20 06:03:38;;;;;;;5.95;1.83;;;;;;;22.92;63.72;100584.41;5069667;28;20602;-69
2021/06/20 06:06:04;;;;;;;3.42;2.00;;;;;;;23.11;62.93;100587.59;5051875;28;20044;-69
2021/06/20 06:08:30;;;;;;;4.25;2.20;;;;;;;22.76;63.50;100586.06;5069614;28;20497;-68
2021/06/20 06:10:55;;;;;;;7.30;2.13;;;;;;;22.97;63.15;100592.44;5070839;28;20036;-69
2021/06/20 06:13:21;;;;;;;8.10;1.80;;;;;;;23.21;61.97;100586.97;5071805;28;20056;-69
2021/06/20 06:15:46;;;;;;;5.82;1.85;;;;;;;23.71;61.77;100601.81;5070224;28;20499;-70
2021/06/20 06:18:12;;;;;;;5.25;1.95;;;;;;;23.78;60.27;100591.84;5069310;28;20392;-70
2021/06/20 06:20:37;;;;;;;2.88;1.80;;;;;;;23.46;60.83;100597.03;5069528;28;20090;-69
2021/06/20 06:23:03;;;;;;;6.22;1.80;;;;;;;23.43;60.62;100598.34;5070138;28;20039;-70
2021/06/20 06:25:28;;;;;;;5.68;2.28;;;;;;;23.60;59.52;100589.53;5069516;28;20044;-70
2021/06/20 06:27:54;;;;;;;3.03;1.85;;;;;;;23.66;59.86;100594.63;5066896;28;20044;-70
2021/06/20 06:30:20;;;;;;;3.03;1.70;;;;;;;23.86;59.35;100599.34;5067938;28;20044;-68
2021/06/20 06:32:46;;;;;;;2.47;1.73;;;;;;;23.57;58.92;100606.72;5052001;28;20174;-71
2021/06/20 06:35:13;;;;;;;9.02;2.15;;;;;;;23.84;59.09;100598.03;5065542;28;20704;-69
2021/06/20 06:37:40;;;;;;;3.78;1.52;;;;;;;23.81;58.54;100595.88;5065782;28;20098;-69
2021/06/20 06:40:06;;;;;;;2.67;1.50;;;;;;;24.21;57.04;100618.50;5050045;28;20146;-70
2021/06/20 06:42:32;;;;;;;2.72;1.40;;;;;;;23.70;57.79;100606.31;5069801;28;20503;-70
2021/06/20 06:44:57;;;;;;;3.85;1.70;;;;;;;24.01;56.87;100609.31;5067826;28;20032;-70
2021/06/20 06:47:26;;;;;;;4.10;2.15;;;;;;;24.81;55.91;100598.06;5035295;28;20602;-70
2021/06/20 06:49:52;;;;;;;3.78;1.48;;;;;;;25.52;54.14;100588.88;5052872;28;20483;-70
2021/06/20 06:52:17;;;;;;;3.70;1.77;;;;;;;25.95;54.19;100589.53;5069901;28;20044;-69
2021/06/20 06:54:53;;;;;;;3.10;1.67;;;;;;;25.65;50.25;100593.69;5070054;28;20044;-69
2021/06/20 06:57:20;;;;;;;4.35;2.13;;;;;;;24.88;51.87;100601.28;5048992;28;20028;-71
2021/06/20 06:59:45;;;;;;;4.15;1.52;;;;;;;25.36;52.80;100603.94;5052109;28;20021;-71
2021/06/20 07:02:11;;;;;;;4.53;1.30;;;;;;;25.01;52.35;100610.63;5049634;28;20039;-70
2021/06/20 07:04:36;;;;;;;11.68;1.98;;;;;;;24.47;53.78;100600.97;5069843;28;20040;-70
2021/06/20 07:07:02;;;;;;;1.88;1.30;;;;;;;24.26;54.00;100610.59;5068102;28;20040;-69
2021/06/20 07:09:28;;;;;;;5.35;2.03;;;;;;;24.69;52.58;100600.88;5068521;28;20439;-70
2021/06/20 07:11:53;;;;;;;4.85;1.60;;;;;;;24.43;52.85;100598.03;5069707;28;20032;-69
2021/06/20 07:14:18;;;;;;;5.38;1.83;;;;;;;24.42;53.52;100603.59;5051696;28;20029;-70
2021/06/20 07:16:44;;;;;;;4.18;1.40;;;;;;;23.97;55.51;100618.81;5069642;28;20444;-70
2021/06/20 07:19:10;;;;;;;2.08;1.48;;;;;;;23.85;56.40;100629.53;5068868;28;20099;-70
2021/06/20 07:21:35;;;;;;;5.60;1.15;;;;;;;23.67;55.56;100630.63;5069070;28;20029;-70
2021/06/20 07:24:01;;;;;;;2.15;1.30;;;;;;;23.77;54.55;100621.19;5067965;28;20384;-69
2021/06/20 07:26:26;;;;;;;3.75;1.33;;;;;;;24.45;51.44;100629.59;5069644;28;20082;-69
2021/06/20 07:28:52;;;;;;;5.25;1.45;;;;;;;25.29;50.25;100627.25;5069314;28;20041;-69
2021/06/20 07:31:18;;;;;;;2.95;1.05;;;;;;;25.95;49.48;100624.06;5068806;28;20431;-69
2021/06/20 07:33:43;;;;;;;3.17;1.10;;;;;;;26.06;47.84;100622.22;5067449;28;20040;-69
2021/06/20 07:36:10;;;;;;;1.13;0.88;;;;;;;26.26;47.70;100618.75;5069085;28;20424;-69
2021/06/20 07:38:36;;;;;;;1.77;1.02;;;;;;;26.73;46.83;100615.03;5069586;28;20028;-70
2021/06/20 07:41:01;;;;;;;1.52;1.00;;;;;;;26.34;47.13;100610.28;5069100;28;20040;-69
2021/06/20 07:43:27;;;;;;;3.15;0.90;;;;;;;26.37;47.17;100615.88;5051159;28;20054;-70
2021/06/20 07:45:55;;;;;;;4.18;1.05;;;;;;;26.64;46.86;100616.69;5068325;28;20404;-70
2021/06/20 07:48:23;;;;;;;6.13;1.20;;;;;;;26.72;48.45;100616.13;5063975;28;20098;-70
2021/06/20 07:50:49;;;;;;;3.45;1.38;;;;;;;26.88;47.44;100607.06;5050857;28;20043;-71
2021/06/20 07:53:14;;;;;;;4.60;2.28;;;;;;;26.56;46.32;100621.44;5069137;28;21490;-71
2021/06/20 07:55:40;;;;;;;9.00;1.77;;;;;;;27.03;46.81;100616.06;5067974;28;20117;-70
2021/06/20 07:58:05;;;;;;;6.18;1.20;;;;;;;26.11;47.78;100619.56;5067327;28;20017;-71
2021/06/20 08:00:30;;;;;;;2.00;1.33;;;;;;;25.72;48.18;100631.41;5048595;28;20040;-70
2021/06/20 08:02:56;;;;;;;4.43;1.30;;;;;;;25.23;49.95;100637.84;5067094;28;20029;-70
2021/06/20 08:05:21;;;;;;;4.65;1.25;;;;;;;25.11;50.86;100649.66;5064417;28;20119;-70
2021/06/20 08:07:46;;;;;;;4.00;1.25;;;;;;;24.97;50.85;100660.72;5068099;28;20032;-70
2021/06/20 08:10:12;;;;;;;1.50;1.02;;;;;;;24.74;51.48;100655.81;5056175;28;20033;-70
2021/06/20 08:12:38;;;;;;;1.85;1.02;;;;;;;25.46;48.99;100657.03;5062116;28;20524;-70
2021/06/20 08:15:05;;;;;;;2.30;1.13;;;;;;;25.32;49.57;100645.31;5062056;28;20131;-70
2021/06/20 08:17:30;;;;;;;6.45;1.48;;;;;;;25.37;49.68;100643.50;5065689;28;20388;-69
2021/06/20 08:19:56;;;;;;;2.78;1.20;;;;;;;25.74;50.04;100642.56;5068238;28;20040;-70
2021/06/20 08:22:21;;;;;;;3.22;1.05;;;;;;;26.75;46.77;100632.34;5046215;28;20059;-70
2021/06/20 08:24:47;;;;;;;1.40;1.00;;;;;;;27.26;45.93;100634.13;5048215;28;20036;-69
2021/06/20 08:27:13;;;;;;;2.53;1.00;;;;;;;27.58;45.63;100622.28;5067723;28;20115;-70
2021/06/20 08:29:38;;;;;;;3.75;1.30;;;;;;;28.07;43.82;100616.13;5067953;28;20036;-70
2021/06/20 08:32:05;;;;;;;6.13;1.85;;;;;;;28.42;43.01;100611.59;5066455;28;20044;-71
2021/06/20 08:34:31;;;;;;;5.00;1.10;;;;;;;28.33;42.33;100607.94;5066852;28;20033;-70
2021/06/20 08:36:58;;;;;;;4.07;1.60;;;;;;;28.21;42.22;100616.28;5067587;28;20033;-71
2021/06/20 08:39:24;;;;;;;5.43;0.93;;;;;;;27.76;41.96;100620.81;5068407;28;20072;-70
2021/06/20 08:41:49;;;;;;;3.03;1.20;;;;;;;28.02;42.31;100623.38;5051348;28;20094;-70
2021/06/20 08:44:18;;;;;;;3.63;1.23;;;;;;;27.26;43.27;100628.78;5061748;28;20037;-71
2021/06/20 08:46:44;;;;;;;3.25;1.10;;;;;;;27.12;43.97;100635.72;5061677;28;20098;-71
2021/06/20 08:49:11;;;;;;;6.38;1.77;;;;;;;27.42;44.04;100613.53;5070011;28;20484;-71
2021/06/20 08:51:37;;;;;;;4.80;1.10;;;;;;;27.52;44.00;100621.50;5067975;28;20412;-70
2021/06/20 08:54:02;;;;;;;2.30;0.80;;;;;;;27.35;43.83;100619.19;5065780;28;20024;-72
2021/06/20 08:56:28;;;;;;;1.52;1.20;;;;;;;27.54;45.56;100632.66;5067348;28;20040;-71
2021/06/20 08:58:53;;;;;;;1.75;0.80;;;;;;;27.18;43.57;100632.78;5067455;28;20560;-70
2021/06/20 09:01:18;;;;;;;1.73;0.80;;;;;;;27.20;44.12;100632.50;5065782;28;20036;-70
2021/06/20 09:03:45;;;;;;;3.25;1.20;;;;;;;27.30;43.18;100640.47;5066595;28;20037;-71
2021/06/20 09:06:21;;;;;;;2.95;1.05;;;;;;;27.31;44.39;100639.44;5065347;28;20040;-71
2021/06/20 09:08:49;;;;;;;1.85;0.90;;;;;;;27.31;43.32;100628.78;5065361;28;20021;-70
2021/06/20 09:11:29;;;;;;;2.40;0.90;;;;;;;26.82;44.82;100641.91;5048524;28;20442;-71
2021/06/20 09:14:08;;;;;;;3.30;1.00;;;;;;;26.82;45.53;100639.25;5061850;28;20039;-72
2021/06/20 09:16:36;;;;;;;5.75;1.83;;;;;;;27.24;45.52;100643.38;5061745;28;20045;-71
2021/06/20 09:19:02;;;;;;;2.30;1.20;;;;;;;27.09;44.98;100633.63;5065283;28;20040;-71
2021/06/20 09:21:28;;;;;;;3.55;0.90;;;;;;;26.75;44.23;100642.97;5061106;28;20037;-72
2021/06/20 09:23:58;;;;;;;1.80;1.05;;;;;;;26.69;44.44;100651.22;5049322;28;20115;-71
2021/06/20 09:26:34;;;;;;;6.03;1.10;;;;;;;26.71;46.80;100638.44;5062540;28;20032;-71
2021/06/20 09:29:00;;;;;;;2.35;0.90;;;;;;;27.23;45.11;100633.81;5063651;28;20115;-72
2021/06/20 09:31:26;;;;;;;1.75;0.85;;;;;;;27.77;43.22;100638.41;5056714;28;20108;-71
2021/06/20 09:33:58;;;;;;;3.15;0.95;;;;;;;27.61;42.49;100632.34;5064972;28;20051;-70
2021/06/20 09:36:27;;;;;;;;;;;;;;;27.48;42.32;100638.28;5064624;28;20028;-71
2021/06/20 09:38:53;;;;;;;3.78;0.90;;;;;;;27.33;40.79;100645.28;5066407;28;19974;-71
2021/06/20 09:41:18;;;;;;;1.38;0.82;;;;;;;27.33;43.54;100647.13;5046703;28;20436;-71
2021/06/20 09:43:54;;;;;;;1.52;0.80;;;;;;;26.98;43.24;100657.56;5066597;28;20045;-70
2021/06/20 09:46:20;;;;;;;3.75;1.00;;;;;;;27.18;45.03;100650.59;5066972;28;20070;-70
2021/06/20 09:48:45;;;;;;;2.08;0.95;;;;;;;27.42;43.70;100668.66;5048168;28;20477;-71
2021/06/20 09:51:25;;;;;;;2.70;0.80;;;;;;;27.06;43.31;100653.56;5044667;28;20029;-71
2021/06/20 09:53:51;;;;;;;1.52;0.77;;;;;;;26.56;44.21;100663.16;5049635;28;20397;-70
2021/06/20 09:56:25;;;;;;;2.03;0.90;;;;;;;26.56;43.81;100658.66;5063297;28;20044;-71
2021/06/20 09:59:02;;;;;;;1.20;0.80;;;;;;;26.47;45.17;100662.13;5050965;28;20050;-70
2021/06/20 10:01:30;;;;;;;1.50;0.98;;;;;;;26.21;43.51;100668.19;5055695;28;20045;-70
2021/06/20 10:03:56;;;;;;;1.63;0.75;;;;;;;25.95;43.46;100672.66;5064614;28;20036;-71
2021/06/20 10:06:21;;;;;;;1.58;0.68;;;;;;;26.27;45.35;100681.50;5063323;28;20036;-70
2021/06/20 10:08:47;;;;;;;2.30;0.93;;;;;;;27.12;44.87;100670.31;5071489;28;20051;-71
2021/06/20 10:11:14;;;;;;;5.05;0.93;;;;;;;26.94;41.33;100664.50;5068820;28;20051;-71
2021/06/20 10:13:40;;;;;;;6.03;1.50;;;;;;;27.05;42.78;100667.13;5065409;28;20051;-70
2021/06/20 10:16:19;;;;;;;5.07;1.08;;;;;;;26.74;43.13;100672.50;5067762;28;20451;-71
2021/06/20 10:18:52;;;;;;;4.78;1.17;;;;;;;26.86;44.03;100661.56;5068885;28;20085;-71
2021/06/20 10:21:36;;;;;;;2.33;0.95;;;;;;;26.62;43.39;100651.50;5070868;28;20037;-70
2021/06/20 10:24:20;;;;;;;1.92;0.93;;;;;;;26.61;42.83;100660.53;5066795;28;20051;-70
2021/06/20 10:26:52;;;;;;;1.42;0.95;;;;;;;26.56;43.89;100663.97;5054971;28;20035;-70
2021/06/20 10:29:20;;;;;;;1.38;1.23;;;;;;;26.86;44.81;100657.06;5052366;28;20082;-70
2021/06/20 10:31:48;;;;;;;1.80;0.70;;;;;;;26.92;42.64;100660.53;5071149;28;20024;-70
2021/06/20 10:34:16;;;;;;;2.55;1.30;;;;;;;26.62;43.29;100656.81;5069464;28;20046;-71
2021/06/20 10:37:00;;;;;;;3.78;1.33;;;;;;;26.36;43.43;100658.66;5052001;28;20059;-70
2021/06/20 10:39:28;;;;;;;4.97;0.90;;;;;;;26.44;43.36;100654.66;5050466;28;20024;-70
2021/06/20 10:42:09;;;;;;;0.98;0.82;;;;;;;26.25;43.56;100649.84;5070652;28;20536;-70
2021/06/20 10:44:48;;;;;;;2.63;0.90;;;;;;;26.53;42.84;100659.19;5064704;28;20131;-69
2021/06/20 10:47:27;;;;;;;2.78;1.10;;;;;;;27.35;44.18;100648.47;5065185;28;20508;-69
2021/06/20 10:50:05;;;;;;;3.75;0.93;;;;;;;27.41;41.44;100643.09;5064733;28;20044;-70
2021/06/20 10:52:31;;;;;;;3.50;0.80;;;;;;;27.45;43.16;100636.19;5069378;28;20383;-70
2021/06/20 10:55:17;;;;;;;1.58;0.68;;;;;;;27.43;43.59;100635.66;5063644;28;20160;-70
2021/06/20 10:57:54;;;;;;;2.97;0.95;;;;;;;27.10;42.54;100640.50;5068588;28;20043;-70
2021/06/20 11:00:31;;;;;;;1.00;0.90;;;;;;;26.80;42.24;100636.84;5047683;28;20037;-69
2021/06/20 11:03:13;;;;;;;1.45;0.88;;;;;;;26.85;42.04;100622.75;5050334;28;20025;-69
2021/06/20 11:05:50;;;;;;;1.90;0.80;;;;;;;27.08;43.11;100624.81;5066026;28;20033;-70
2021/06/20 11:08:36;;;;;;;2.47;0.77;;;;;;;27.60;43.67;100617.47;5047805;28;20364;-70
2021/06/20 11:11:07;;;;;;;3.83;0.70;;;;;;;27.93;41.92;100618.63;5044342;28;20036;-69
2021/06/20 11:13:33;;;;;;;3.45;1.10;;;;;;;27.76;43.62;100618.97;5060158;28;20029;-70
2021/06/20 11:16:05;;;;;;;1.10;0.80;;;;;;;27.51;40.81;100622.56;5049194;28;20077;-70
2021/06/20 11:18:30;;;;;;;5.13;0.93;;;;;;;27.75;39.63;100620.03;5053617;28;20037;-71
2021/06/20 11:20:56;;;;;;;0.90;0.70;;;;;;;27.59;40.33;100618.53;5066204;28;20044;-71
2021/06/20 11:23:21;;;;;;;1.40;0.90;;;;;;;27.47;40.05;100610.09;5050601;28;20036;-71